Time;durP1;ratioP1;P1;durP2;ratioP2;P2;SDS_P1;SDS_P2;PMS_P1;PMS_P2;Temp;Humidity;BMP_temperature;BMP_pressure;BME280_temperature;BME280_humidity;BME280_pressure;Samples;Min_cycle;Max_cycle;Signal;HPM_P1;HPM_P2
2021/05/01 00:00:12;;;;;;;4.20;4.00;;;;;;;4.51;64.13;100347.00;6157717;23;20019;-77
2021/05/01 00:02:37;;;;;;;3.80;3.60;;;;;;;4.48;64.60;100342.03;6165758;23;20032;-78
2021/05/01 00:05:04;;;;;;;3.45;3.33;;;;;;;4.39;64.57;100333.41;6191593;23;20001;-75
2021/05/01 00:07:29;;;;;;;2.25;2.15;;;;;;;4.44;64.52;100341.69;6187135;23;20020;-74
2021/05/01 00:09:54;;;;;;;2.05;1.95;;;;;;;4.42;64.73;100348.38;6189968;23;20467;-75
2021/05/01 00:12:20;;;;;;;1.90;1.77;;;;;;;4.34;64.22;100342.22;6163505;23;20731;-75
2021/05/01 00:14:45;;;;;;;1.65;1.55;;;;;;;4.39;64.49;100348.84;6161414;23;20005;-75
2021/05/01 00:17:11;;;;;;;1.67;1.58;;;;;;;4.35;63.99;100346.59;6164865;23;20009;-75
2021/05/01 00:19:38;;;;;;;1.23;1.20;;;;;;;4.32;63.87;100338.06;6190390;23;20016;-75
2021/05/01 00:22:04;;;;;;;1.02;0.82;;;;;;;4.34;63.25;100342.22;6164880;23;20078;-73
2021/05/01 00:24:29;;;;;;;0.57;0.57;;;;;;;4.39;64.15;100343.41;6190267;23;20328;-73
2021/05/01 00:26:55;;;;;;;0.90;0.90;;;;;;;4.31;63.19;100339.97;6166166;23;20028;-73
2021/05/01 00:29:20;;;;;;;1.48;1.48;;;;;;;4.31;63.65;100342.66;6190980;23;20005;-73
2021/05/01 00:31:46;;;;;;;1.48;1.42;;;;;;;4.29;64.08;100343.94;6165263;23;20009;-72
2021/05/01 00:34:11;;;;;;;1.40;1.40;;;;;;;4.26;63.72;100342.50;6189896;23;20011;-73
2021/05/01 00:36:37;;;;;;;1.55;1.55;;;;;;;4.23;63.82;100334.84;6163741;23;20069;-73
2021/05/01 00:39:04;;;;;;;2.03;1.88;;;;;;;4.24;64.45;100328.38;6163581;23;20011;-74
2021/05/01 00:41:29;;;;;;;0.68;0.68;;;;;;;4.26;63.53;100334.38;6188465;23;20008;-74
2021/05/01 00:43:55;;;;;;;0.82;0.82;;;;;;;4.26;64.12;100334.38;6189749;23;20005;-74
2021/05/01 00:46:21;;;;;;;0.40;0.40;;;;;;;4.29;64.11;100328.56;6189115;23;20016;-74
2021/05/01 00:48:48;;;;;;;0.73;0.73;;;;;;;4.27;64.02;100330.63;6162274;23;20012;-74
2021/05/01 00:51:14;;;;;;;0.57;0.57;;;;;;;4.31;63.89;100336.44;6137473;23;20126;-73
2021/05/01 00:53:40;;;;;;;0.47;0.47;;;;;;;4.30;63.05;100329.38;6190203;23;20013;-74
2021/05/01 00:56:06;;;;;;;0.63;0.63;;;;;;;4.30;63.42;100329.38;6138955;23;20028;-75
2021/05/01 00:58:32;;;;;;;0.52;0.52;;;;;;;4.29;63.04;100331.25;6163453;23;20001;-74
2021/05/01 01:03:39;;;;;;;0.70;0.70;;;;;;;4.27;63.20;100325.22;6201448;23;20381;-74
2021/05/01 01:06:07;;;;;;;0.55;0.55;;;;;;;4.22;63.37;100313.41;6190694;23;20021;-73
2021/05/01 01:08:32;;;;;;;1.33;1.30;;;;;;;4.22;63.32;100316.97;6190870;23;20012;-74
2021/05/01 01:10:59;;;;;;;2.25;2.15;;;;;;;4.23;63.92;100323.19;6189361;23;20005;-74
2021/05/01 01:13:25;;;;;;;3.60;3.50;;;;;;;4.15;64.66;100319.75;6163270;23;20092;-74
2021/05/01 01:15:50;;;;;;;4.15;3.83;;;;;;;4.16;64.28;100323.28;6163991;23;20507;-72
2021/05/01 01:18:16;;;;;;;3.10;2.90;;;;;;;4.14;64.31;100325.38;6142082;23;20012;-73
2021/05/01 01:20:43;;;;;;;3.13;3.03;;;;;;;4.05;65.18;100311.31;6190786;23;20059;-73
2021/05/01 01:23:08;;;;;;;3.15;2.95;;;;;;;4.04;65.22;100319.69;6140383;23;20013;-74
2021/05/01 01:25:35;;;;;;;2.35;2.25;;;;;;;4.04;65.59;100325.09;6143162;23;20379;-73
2021/05/01 01:28:01;;;;;;;1.42;1.42;;;;;;;4.05;64.55;100322.16;6166954;23;20032;-73
2021/05/01 01:30:30;;;;;;;0.98;0.98;;;;;;;4.03;65.33;100321.56;6191690;23;20004;-75
2021/05/01 01:32:57;;;;;;;1.17;1.17;;;;;;;4.05;64.93;100326.75;6192682;23;20009;-74
2021/05/01 01:35:23;;;;;;;1.30;1.30;;;;;;;4.06;64.38;100320.25;6192568;23;20033;-73
2021/05/01 01:37:50;;;;;;;3.40;3.30;;;;;;;3.96;64.95;100313.50;6165989;23;20008;-74
2021/05/01 01:40:18;;;;;;;3.75;3.35;;;;;;;4.02;65.39;100323.41;6166763;23;20016;-75
2021/05/01 01:42:44;;;;;;;3.63;3.42;;;;;;;4.01;65.68;100326.34;6166691;23;20019;-75
2021/05/01 01:45:13;;;;;;;3.65;3.05;;;;;;;3.95;65.80;100311.03;6165634;23;20029;-74
2021/05/01 01:47:39;;;;;;;4.93;4.63;;;;;;;3.98;65.43;100316.00;6191637;23;20067;-73
2021/05/01 01:50:06;;;;;;;4.32;3.85;;;;;;;3.95;66.26;100311.84;6187814;23;20425;-74
2021/05/01 01:52:32;;;;;;;4.88;4.57;;;;;;;3.89;66.51;100311.94;6190523;23;20344;-74
2021/05/01 01:54:57;;;;;;;3.50;3.30;;;;;;;3.91;66.48;100313.34;6141931;23;20009;-74
2021/05/01 01:57:23;;;;;;;2.83;2.63;;;;;;;3.90;66.11;100310.84;6188729;23;20008;-74
2021/05/01 01:59:48;;;;;;;3.08;2.88;;;;;;;3.87;65.75;100314.88;6188810;23;20004;-74
2021/05/01 02:02:15;;;;;;;3.80;3.60;;;;;;;3.85;66.76;100311.53;6192467;23;20020;-74
2021/05/01 02:04:40;;;;;;;4.80;4.50;;;;;;;3.81;65.98;100310.31;6142154;23;20009;-73
2021/05/01 02:07:05;;;;;;;4.13;3.92;;;;;;;3.79;65.82;100305.16;6164035;23;20104;-72
2021/05/01 02:09:31;;;;;;;4.22;4.03;;;;;;;3.78;67.33;100310.78;6192400;23;20009;-73
2021/05/01 02:11:56;;;;;;;3.58;3.38;;;;;;;3.73;66.96;100314.16;6139309;23;20009;-73
2021/05/01 02:14:22;;;;;;;4.63;4.32;;;;;;;3.70;66.40;100305.69;6139253;23;20009;-73
2021/05/01 02:16:47;;;;;;;4.25;4.05;;;;;;;3.65;66.76;100300.91;6118220;23;20009;-73
2021/05/01 02:19:13;;;;;;;4.38;4.13;;;;;;;3.66;67.46;100308.84;6165873;23;20012;-73
2021/05/01 02:21:38;;;;;;;4.25;4.05;;;;;;;3.64;66.63;100305.50;6167611;23;20088;-74
2021/05/01 02:24:04;;;;;;;3.63;3.42;;;;;;;3.62;66.23;100313.03;6161521;23;20420;-74
2021/05/01 02:26:30;;;;;;;2.65;2.55;;;;;;;3.65;67.13;100306.31;6158357;23;20017;-73
2021/05/01 02:28:55;;;;;;;2.40;2.15;;;;;;;3.64;65.93;100310.09;6187737;23;20005;-73
2021/05/01 02:31:21;;;;;;;2.67;2.25;;;;;;;3.63;66.94;100313.84;6210165;23;19989;-74
2021/05/01 02:33:47;;;;;;;1.85;1.75;;;;;;;3.57;66.94;100304.75;6184926;23;20039;-73
2021/05/01 02:36:12;;;;;;;2.58;2.35;;;;;;;3.52;66.17;100309.16;6182293;23;20031;-73
2021/05/01 02:38:38;;;;;;;1.48;1.48;;;;;;;3.45;66.86;100301.94;6180407;23;19997;-74
2021/05/01 02:41:03;;;;;;;1.40;1.30;;;;;;;3.40;66.20;100304.50;6161520;23;20332;-73
2021/05/01 02:43:29;;;;;;;0.98;0.98;;;;;;;3.37;66.03;100298.69;6194462;23;20008;-72
2021/05/01 02:45:54;;;;;;;1.15;1.13;;;;;;;3.32;66.51;100297.47;6191218;23;20428;-74
2021/05/01 02:48:20;;;;;;;0.95;0.95;;;;;;;3.27;65.75;100293.78;6164907;23;20016;-74
2021/05/01 02:50:45;;;;;;;1.70;1.60;;;;;;;3.25;65.66;100302.09;6190517;23;20011;-74
2021/05/01 02:53:11;;;;;;;1.27;1.27;;;;;;;3.23;66.63;100309.63;6165538;23;20021;-73
2021/05/01 02:55:37;;;;;;;1.15;1.15;;;;;;;3.20;66.46;100298.41;6164124;23;20028;-73
2021/05/01 02:58:02;;;;;;;1.35;1.20;;;;;;;3.15;65.81;100301.78;6166024;23;20376;-74
2021/05/01 03:00:28;;;;;;;0.82;0.82;;;;;;;3.14;65.63;100305.53;6139430;23;20083;-73
2021/05/01 03:02:57;;;;;;;1.45;1.45;;;;;;;3.12;65.42;100307.63;6140826;23;20013;-74
2021/05/01 03:05:26;;;;;;;2.00;1.90;;;;;;;3.03;66.39;100300.84;6163579;23;20114;-73
2021/05/01 03:07:52;;;;;;;0.90;0.90;;;;;;;3.07;66.11;100304.78;6164995;23;20059;-73
2021/05/01 03:10:20;;;;;;;1.17;1.10;;;;;;;3.05;66.32;100301.44;6189632;23;20032;-75
2021/05/01 03:12:47;;;;;;;1.83;1.33;;;;;;;2.95;65.81;100297.38;6164561;23;20075;-75
2021/05/01 03:15:14;;;;;;;2.15;2.05;;;;;;;2.94;65.43;100301.09;6141750;23;20005;-74
2021/05/01 03:17:42;;;;;;;2.88;2.72;;;;;;;2.90;66.46;100299.06;6192373;23;20013;-74
2021/05/01 03:20:09;;;;;;;3.70;3.50;;;;;;;2.84;66.57;100300.75;6167179;23;20005;-73
2021/05/01 03:22:35;;;;;;;6.53;2.70;;;;;;;2.80;67.15;100299.53;6189781;23;20328;-75
2021/05/01 03:25:01;;;;;;;2.58;2.45;;;;;;;2.77;66.19;100305.38;6188665;23;20005;-73
2021/05/01 03:27:27;;;;;;;1.80;1.70;;;;;;;2.73;66.54;100306.84;6166155;23;20031;-74
2021/05/01 03:29:52;;;;;;;1.83;1.33;;;;;;;2.71;66.62;100298.97;6141551;23;20428;-74
2021/05/01 03:32:18;;;;;;;1.08;1.08;;;;;;;2.66;66.58;100298.81;6189969;23;20005;-75
2021/05/01 03:34:47;;;;;;;2.67;2.58;;;;;;;2.68;66.22;100302.09;6140848;23;20005;-74
2021/05/01 03:37:12;;;;;;;3.97;3.67;;;;;;;2.66;66.02;100301.50;6192384;23;20009;-74
2021/05/01 03:39:38;;;;;;;2.97;2.83;;;;;;;2.60;67.14;100295.09;6193147;23;20451;-74
2021/05/01 03:42:04;;;;;;;2.78;2.47;;;;;;;2.60;67.34;100299.69;6133556;23;20013;-74
2021/05/01 03:44:29;;;;;;;2.35;2.25;;;;;;;2.61;67.64;100296.75;6141228;23;20035;-74
2021/05/01 03:46:55;;;;;;;4.40;4.18;;;;;;;2.58;67.24;100291.75;6140989;23;20005;-75
2021/05/01 03:49:21;;;;;;;5.50;5.20;;;;;;;2.52;67.66;100286.41;6165174;23;20009;-75
2021/05/01 03:51:47;;;;;;;5.18;4.68;;;;;;;2.53;68.01;100302.41;6165895;23;20013;-75
2021/05/01 03:54:13;;;;;;;4.65;3.72;;;;;;;2.54;68.44;100301.38;6141168;23;20020;-75
2021/05/01 03:56:39;;;;;;;3.35;3.17;;;;;;;2.54;68.18;100304.06;6192447;23;20060;-74
2021/05/01 03:59:05;;;;;;;4.35;4.15;;;;;;;2.40;67.97;100286.28;6190861;23;20393;-74
2021/05/01 04:01:30;;;;;;;4.18;3.97;;;;;;;2.52;68.11;100297.22;6192813;23;20066;-74
2021/05/01 04:03:56;;;;;;;5.20;4.70;;;;;;;2.43;68.39;100283.16;6164327;23;20044;-75
2021/05/01 04:06:21;;;;;;;5.90;5.50;;;;;;;2.48;67.98;100302.19;6143278;23;20004;-76
2021/05/01 04:08:47;;;;;;;5.30;5.00;;;;;;;2.48;69.37;100299.50;6164955;23;20013;-75
2021/05/01 04:11:13;;;;;;;6.07;5.60;;;;;;;2.47;68.82;100300.56;6192127;23;20005;-75
2021/05/01 04:13:45;;;;;;;4.57;4.20;;;;;;;2.46;68.28;100298.91;6166311;23;20009;-76
2021/05/01 04:16:11;;;;;;;4.28;4.00;;;;;;;2.46;69.01;100298.09;6200109;23;20013;-74
2021/05/01 04:18:36;;;;;;;6.78;6.28;;;;;;;2.42;68.78;100292.28;6145835;23;20061;-73
2021/05/01 04:21:01;;;;;;;6.85;6.05;;;;;;;2.42;68.66;100293.13;6194293;23;20005;-72
2021/05/01 04:23:27;;;;;;;6.25;5.72;;;;;;;2.42;69.50;100292.28;6166400;23;20012;-73
2021/05/01 04:25:52;;;;;;;8.25;7.53;;;;;;;2.39;70.21;100285.44;6138265;23;20008;-73
2021/05/01 04:28:18;;;;;;;7.93;7.13;;;;;;;2.40;70.12;100288.97;6159521;23;20005;-74
2021/05/01 04:30:43;;;;;;;6.53;6.13;;;;;;;2.43;70.36;100302.84;6162207;23;20005;-74
2021/05/01 04:33:09;;;;;;;4.30;4.00;;;;;;;2.39;69.96;100290.81;6139649;23;19989;-74
2021/05/01 04:35:34;;;;;;;5.22;4.82;;;;;;;2.44;69.58;100292.91;6139629;23;20005;-73
2021/05/01 04:37:59;;;;;;;6.78;6.35;;;;;;;2.43;70.02;100299.34;6163781;23;20069;-73
2021/05/01 04:40:25;;;;;;;5.63;5.30;;;;;;;2.42;69.91;100313.88;6191639;23;20015;-74
2021/05/01 04:42:52;;;;;;;4.78;4.50;;;;;;;2.40;69.70;100305.97;6167337;23;20016;-73
2021/05/01 04:45:19;;;;;;;4.47;4.28;;;;;;;2.39;70.02;100303.50;6165770;23;20432;-73
2021/05/01 04:47:45;;;;;;;4.40;4.10;;;;;;;2.40;70.40;100315.97;6193637;23;20017;-73
2021/05/01 04:50:14;;;;;;;3.13;2.92;;;;;;;2.41;69.91;100312.19;6195003;23;20005;-73
2021/05/01 04:52:40;;;;;;;3.28;3.08;;;;;;;2.43;70.43;100315.53;6164026;23;20017;-73
2021/05/01 04:55:13;;;;;;;2.05;1.95;;;;;;;2.44;70.15;100314.50;6165426;23;20036;-73
2021/05/01 04:57:42;;;;;;;1.95;1.85;;;;;;;2.51;69.86;100320.69;6191584;23;20020;-73
2021/05/01 05:00:09;;;;;;;1.77;1.67;;;;;;;2.53;68.99;100323.19;6193514;23;20009;-73
2021/05/01 05:02:34;;;;;;;1.15;1.13;;;;;;;2.55;69.37;100330.00;6143188;23;20013;-74
2021/05/01 05:05:00;;;;;;;1.70;1.60;;;;;;;2.53;68.91;100321.28;6143648;23;20012;-75
2021/05/01 05:07:25;;;;;;;1.65;1.55;;;;;;;2.54;69.18;100322.97;6142197;23;20392;-74
2021/05/01 05:09:52;;;;;;;1.50;1.40;;;;;;;2.53;69.87;100325.88;6143788;23;20508;-74
2021/05/01 05:12:17;;;;;;;1.52;1.42;;;;;;;2.58;69.36;100340.34;6195261;23;20001;-74
2021/05/01 05:14:42;;;;;;;1.70;1.60;;;;;;;2.55;68.65;100338.09;6144188;23;20059;-74
2021/05/01 05:17:08;;;;;;;1.77;1.67;;;;;;;2.54;68.53;100331.06;6143060;23;20036;-74
2021/05/01 05:19:35;;;;;;;1.05;0.95;;;;;;;2.54;69.43;100328.34;6141596;23;20392;-74
2021/05/01 05:22:24;;;;;;;1.05;1.05;;;;;;;2.61;68.93;100334.56;6190279;23;20024;-75
2021/05/01 05:24:52;;;;;;;2.03;1.92;;;;;;;2.54;68.59;100332.91;6168743;23;20344;-75
2021/05/01 05:27:18;;;;;;;1.30;1.27;;;;;;;2.62;68.35;100347.00;6135437;23;20067;-75
2021/05/01 05:29:50;;;;;;;1.60;1.50;;;;;;;2.68;68.33;100349.88;6167113;23;20464;-75
2021/05/01 05:32:16;;;;;;;1.23;1.23;;;;;;;2.69;68.07;100344.28;6164888;23;20012;-74
2021/05/01 05:34:42;;;;;;;2.00;1.90;;;;;;;2.74;68.06;100343.63;6186538;23;20081;-75
2021/05/01 05:37:07;;;;;;;2.10;2.00;;;;;;;2.83;67.94;100353.09;6163074;23;20005;-76
2021/05/01 05:39:33;;;;;;;1.10;1.10;;;;;;;2.84;67.87;100338.56;6165965;23;20088;-74
2021/05/01 05:41:58;;;;;;;1.05;1.00;;;;;;;2.92;67.45;100350.97;6141606;23;20386;-74
2021/05/01 05:44:23;;;;;;;0.75;0.75;;;;;;;3.01;67.76;100357.81;6167147;23;20009;-74
2021/05/01 05:46:49;;;;;;;0.88;0.88;;;;;;;3.15;67.62;100363.94;6194445;23;20072;-74
2021/05/01 05:49:15;;;;;;;2.75;1.33;;;;;;;3.16;67.21;100345.88;6191105;23;20064;-75
2021/05/01 05:51:40;;;;;;;2.85;1.73;;;;;;;3.23;67.55;100352.88;6138612;23;20030;-74
2021/05/01 05:54:05;;;;;;;2.20;2.08;;;;;;;3.31;67.93;100366.13;6111809;23;20039;-75
2021/05/01 05:56:38;;;;;;;2.70;2.60;;;;;;;3.35;67.31;100365.69;6136536;23;20016;-74
2021/05/01 05:59:03;;;;;;;1.45;1.40;;;;;;;3.42;67.35;100364.56;6164606;23;19986;-74
2021/05/01 06:01:31;;;;;;;1.23;1.13;;;;;;;3.60;68.23;100385.41;6137380;23;20020;-74
2021/05/01 06:03:58;;;;;;;1.73;1.52;;;;;;;3.72;67.50;100376.59;6162776;23;20001;-74
2021/05/01 06:06:34;;;;;;;1.23;1.13;;;;;;;3.83;67.98;100378.56;6164107;23;20009;-74
2021/05/01 06:09:01;;;;;;;1.17;1.17;;;;;;;3.97;67.21;100380.09;6164085;23;20005;-74
2021/05/01 06:11:28;;;;;;;1.15;1.15;;;;;;;4.06;67.17;100377.09;6139418;23;20080;-73
2021/05/01 06:14:03;;;;;;;5.05;4.85;;;;;;;4.18;66.80;100376.13;6136489;23;20001;-73
2021/05/01 06:16:30;;;;;;;4.97;4.78;;;;;;;4.39;67.82;100389.44;6137809;23;20063;-74
2021/05/01 06:18:56;;;;;;;4.85;4.55;;;;;;;4.46;66.96;100379.38;6161982;23;20009;-74
2021/05/01 06:21:22;;;;;;;5.82;5.53;;;;;;;4.59;67.01;100381.91;6138107;23;20049;-73
2021/05/01 06:23:48;;;;;;;4.38;4.00;;;;;;;4.79;67.03;100386.25;6132889;23;20005;-72
2021/05/01 06:26:13;;;;;;;4.18;3.88;;;;;;;4.94;67.06;100389.38;6163429;23;20012;-73
2021/05/01 06:28:39;;;;;;;3.97;3.78;;;;;;;5.12;67.01;100385.78;6162558;23;20009;-73
2021/05/01 06:31:08;;;;;;;4.72;4.53;;;;;;;5.27;67.08;100388.09;6163571;23;20005;-74
2021/05/01 06:33:41;;;;;;;4.82;4.55;;;;;;;5.42;66.77;100385.75;6112734;23;20076;-72
2021/05/01 06:36:11;;;;;;;5.05;4.75;;;;;;;5.60;66.53;100392.16;6161086;23;20008;-71
2021/05/01 06:38:38;;;;;;;4.70;4.38;;;;;;;5.69;66.05;100388.03;6136838;23;20013;-71
2021/05/01 06:41:08;;;;;;;4.25;4.00;;;;;;;5.89;66.01;100395.81;6133546;23;20009;-71
2021/05/01 06:43:50;;;;;;;4.78;4.40;;;;;;;6.07;65.86;100400.34;6162910;23;20009;-72
2021/05/01 06:46:37;;;;;;;4.45;4.25;;;;;;;6.16;65.57;100389.13;6158138;23;20084;-75
2021/05/01 06:49:06;;;;;;;3.47;3.22;;;;;;;6.36;65.63;100405.06;6159193;23;20029;-70
2021/05/01 06:51:37;;;;;;;3.97;3.78;;;;;;;6.54;65.91;100407.63;6142703;23;20064;-70
2021/05/01 06:54:03;;;;;;;3.50;3.40;;;;;;;6.70;65.32;100411.50;6191796;23;20369;-70
2021/05/01 06:56:29;;;;;;;4.75;4.55;;;;;;;6.89;65.08;100408.56;6156332;23;20091;-69
2021/05/01 06:59:03;;;;;;;4.13;3.92;;;;;;;7.12;65.17;100408.47;6188926;23;20033;-71
2021/05/01 07:01:30;;;;;;;5.18;4.88;;;;;;;7.33;65.37;100403.44;6187660;23;20017;-70
2021/05/01 07:03:56;;;;;;;5.90;5.70;;;;;;;7.54;64.28;100414.66;6164578;23;20055;-70
2021/05/01 07:06:21;;;;;;;4.43;4.22;;;;;;;7.74;64.06;100415.00;6162004;23;20029;-69
2021/05/01 07:08:47;;;;;;;4.40;4.20;;;;;;;7.97;63.48;100421.34;6160730;23;20035;-69
2021/05/01 07:11:13;;;;;;;4.03;3.83;;;;;;;8.17;63.83;100420.81;6160642;23;20021;-70
2021/05/01 07:13:39;;;;;;;4.15;3.55;;;;;;;8.37;63.24;100423.03;6189670;23;20016;-68
2021/05/01 07:16:09;;;;;;;3.75;3.55;;;;;;;8.59;62.66;100424.97;6185688;23;20013;-72
2021/05/01 07:18:40;;;;;;;3.85;3.65;;;;;;;8.78;61.91;100428.22;6160295;23;20045;-70
2021/05/01 07:21:06;;;;;;;3.47;3.35;;;;;;;8.95;61.47;100418.06;6191268;23;20001;-75
2021/05/01 07:23:32;;;;;;;3.88;3.50;;;;;;;9.11;61.46;100415.47;6120321;23;20009;-78
2021/05/01 07:25:58;;;;;;;4.00;3.83;;;;;;;9.36;60.64;100420.38;6162979;23;20067;-73
2021/05/01 07:28:26;;;;;;;4.10;3.90;;;;;;;9.58;60.75;100420.31;6139942;23;20013;-75
2021/05/01 07:30:54;;;;;;;3.25;3.15;;;;;;;9.79;59.82;100422.13;6186976;23;20036;-74
2021/05/01 07:33:29;;;;;;;3.95;3.53;;;;;;;10.03;59.14;100418.19;6194288;23;20000;-73
2021/05/01 07:35:58;;;;;;;3.45;3.25;;;;;;;10.16;58.04;100420.47;6183836;23;19992;-73
2021/05/01 07:38:25;;;;;;;2.88;2.78;;;;;;;10.30;58.61;100420.84;6193731;23;20000;-72
2021/05/01 07:40:58;;;;;;;3.28;3.08;;;;;;;10.42;58.19;100423.41;6170464;23;20065;-74
2021/05/01 07:43:26;;;;;;;3.80;3.47;;;;;;;10.46;56.94;100432.72;6198398;23;20008;-72
2021/05/01 07:45:56;;;;;;;2.55;2.45;;;;;;;10.49;56.94;100429.47;6151834;23;20020;-72
2021/05/01 07:48:24;;;;;;;2.55;2.45;;;;;;;10.60;56.67;100431.16;6167573;23;20065;-73
2021/05/01 07:50:50;;;;;;;3.17;2.97;;;;;;;10.73;56.68;100431.75;6206557;23;20082;-74
2021/05/01 07:53:15;;;;;;;3.10;3.00;;;;;;;10.89;56.25;100433.47;6203594;23;20017;-73
2021/05/01 07:55:41;;;;;;;2.63;2.53;;;;;;;11.03;55.97;100438.44;6184390;23;20005;-73
2021/05/01 07:58:07;;;;;;;3.50;3.15;;;;;;;11.12;55.58;100431.34;6170314;23;20016;-74
2021/05/01 08:00:34;;;;;;;3.55;3.35;;;;;;;11.28;54.70;100432.22;6169273;23;20043;-73
2021/05/01 08:03:04;;;;;;;2.90;2.80;;;;;;;11.41;55.10;100434.44;6140992;23;20096;-73
2021/05/01 08:05:29;;;;;;;3.33;3.17;;;;;;;11.61;54.84;100439.13;6184852;23;20005;-74
2021/05/01 08:07:56;;;;;;;2.85;2.75;;;;;;;11.80;54.23;100438.59;6189582;23;20000;-75
2021/05/01 08:10:21;;;;;;;2.45;2.35;;;;;;;12.01;54.24;100447.63;6188034;23;20005;-73
2021/05/01 08:12:48;;;;;;;2.90;2.70;;;;;;;12.15;53.91;100442.41;6164739;23;20035;-75
2021/05/01 08:15:13;;;;;;;2.90;2.80;;;;;;;12.34;53.41;100440.75;6165127;23;20031;-74
2021/05/01 08:17:51;;;;;;;2.00;1.90;;;;;;;12.58;53.55;100451.09;6165807;23;20005;-75
2021/05/01 08:20:16;;;;;;;3.63;3.42;;;;;;;12.69;52.10;100436.25;6188414;23;20029;-74
2021/05/01 08:22:42;;;;;;;3.95;3.58;;;;;;;12.89;51.26;100442.75;6165805;23;20005;-75
2021/05/01 08:25:09;;;;;;;3.13;3.03;;;;;;;12.98;50.82;100446.56;6190030;23;20005;-76
2021/05/01 08:27:35;;;;;;;2.67;2.58;;;;;;;13.16;51.12;100438.81;6190203;23;20424;-74
2021/05/01 08:30:05;;;;;;;2.80;2.70;;;;;;;13.30;50.15;100434.31;6191679;23;20032;-75
2021/05/01 08:32:31;;;;;;;2.63;2.53;;;;;;;13.51;50.33;100434.22;6190941;23;19997;-76
2021/05/01 08:34:56;;;;;;;2.30;2.20;;;;;;;13.70;50.17;100426.13;6164258;23;20517;-74
2021/05/01 08:37:22;;;;;;;2.80;2.65;;;;;;;13.96;49.32;100440.47;6164176;23;20004;-75
2021/05/01 08:39:48;;;;;;;2.97;2.88;;;;;;;14.09;48.29;100439.78;6161758;23;20005;-75
2021/05/01 08:42:13;;;;;;;2.58;2.40;;;;;;;14.19;48.32;100435.28;6142489;23;20009;-74
2021/05/01 08:44:41;;;;;;;2.13;2.03;;;;;;;14.43;48.27;100444.41;6137927;23;20099;-73
2021/05/01 08:47:07;;;;;;;2.67;2.58;;;;;;;14.63;47.64;100434.28;6190400;23;20008;-73
2021/05/01 08:49:32;;;;;;;2.17;2.08;;;;;;;14.83;48.13;100450.59;6166324;23;20005;-74
2021/05/01 08:51:58;;;;;;;2.50;2.40;;;;;;;14.91;46.95;100442.78;6192090;23;20027;-73
2021/05/01 08:54:24;;;;;;;2.20;2.10;;;;;;;15.06;47.33;100448.09;6188652;23;20004;-74
2021/05/01 08:56:50;;;;;;;2.35;2.22;;;;;;;15.26;46.14;100448.91;6167877;23;20005;-76
2021/05/01 08:59:15;;;;;;;2.30;2.10;;;;;;;15.48;45.87;100446.41;6193844;23;20009;-74
2021/05/01 09:01:41;;;;;;;3.40;1.58;;;;;;;15.68;46.59;100447.19;6157315;23;20016;-74
2021/05/01 09:04:10;;;;;;;3.80;2.67;;;;;;;15.95;45.21;100460.31;6193128;23;20009;-74
2021/05/01 09:06:37;;;;;;;3.10;2.97;;;;;;;16.12;44.33;100458.91;6164668;23;20024;-73
2021/05/01 09:09:05;;;;;;;2.20;2.10;;;;;;;16.25;44.54;100449.03;6166364;23;20088;-73
2021/05/01 09:11:45;;;;;;;2.08;1.98;;;;;;;16.37;44.43;100454.91;6192627;23;20001;-74
2021/05/01 09:14:22;;;;;;;2.35;2.20;;;;;;;16.39;44.14;100452.66;6191533;23;20004;-75
2021/05/01 09:16:59;;;;;;;2.15;2.00;;;;;;;16.54;43.77;100452.38;6193301;23;20011;-73
2021/05/01 09:19:33;;;;;;;1.75;1.65;;;;;;;16.68;43.88;100452.38;6193395;23;20072;-73
2021/05/01 09:22:02;;;;;;;7.10;2.45;;;;;;;16.93;43.05;100445.53;6192195;23;20005;-72
2021/05/01 09:24:28;;;;;;;1.67;1.58;;;;;;;17.30;42.81;100447.53;6164597;23;20001;-73
2021/05/01 09:26:54;;;;;;;1.88;1.77;;;;;;;17.47;41.88;100447.69;6140854;23;20324;-73
2021/05/01 09:29:32;;;;;;;2.50;2.33;;;;;;;17.80;41.67;100450.22;6140335;23;20005;-73
2021/05/01 09:32:00;;;;;;;1.00;1.00;;;;;;;18.00;41.21;100451.69;6163365;23;20020;-73
2021/05/01 09:34:47;;;;;;;1.67;1.27;;;;;;;18.05;40.75;100450.75;6168949;23;20004;-73
2021/05/01 09:37:14;;;;;;;0.60;0.60;;;;;;;18.58;42.52;100443.53;6193643;23;20001;-72
2021/05/01 09:39:54;;;;;;;1.35;1.25;;;;;;;19.85;41.75;100448.34;6193244;23;20017;-74
2021/05/01 09:42:27;;;;;;;0.85;0.85;;;;;;;20.27;39.73;100448.59;6194585;23;20008;-74
2021/05/01 09:45:21;;;;;;;1.00;1.00;;;;;;;21.40;39.37;100455.53;6195269;23;20005;-74
2021/05/01 09:47:53;;;;;;;0.85;0.85;;;;;;;22.45;37.00;100460.16;6167592;23;20063;-73
2021/05/01 09:50:32;;;;;;;0.45;0.45;;;;;;;23.26;36.28;100458.78;6170454;23;20069;-75
2021/05/01 09:56:12;;;;;;;0.98;0.98;;;;;;;22.32;32.83;100455.72;6170942;23;20056;-75
2021/05/01 09:58:56;;;;;;;1.05;1.05;;;;;;;21.55;32.10;100439.41;6193000;23;20015;-74
2021/05/01 10:01:46;;;;;;;;;;;;;;;;;;;;;
2021/05/01 10:04:21;;;;;;;1.10;1.10;;;;;;;20.25;33.76;100453.63;6170460;23;20024;-73
2021/05/01 10:06:58;;;;;;;0.98;0.98;;;;;;;20.92;35.40;100451.28;6194052;23;20001;-76
2021/05/01 10:09:33;;;;;;;1.10;0.75;;;;;;;22.35;35.83;100449.47;6168582;23;20005;-76
2021/05/01 10:12:08;;;;;;;0.30;0.30;;;;;;;23.48;34.24;100449.91;6162606;23;20021;-80
2021/05/01 10:14:36;;;;;;;1.40;1.27;;;;;;;24.24;31.06;100440.88;6165576;23;20009;-75
2021/05/01 10:17:02;;;;;;;0.60;0.60;;;;;;;24.35;29.97;100449.53;6162930;23;20015;-74
2021/05/01 10:19:50;;;;;;;0.82;0.80;;;;;;;24.01;28.73;100444.25;6192102;23;20013;-73
2021/05/01 10:22:40;;;;;;;0.95;0.95;;;;;;;23.34;28.46;100439.13;6190414;23;20043;-74
2021/05/01 10:25:08;;;;;;;1.33;1.23;;;;;;;22.49;28.51;100444.38;6191305;23;20000;-73
2021/05/01 10:27:54;;;;;;;0.95;0.95;;;;;;;21.69;28.91;100448.31;6168227;23;20009;-75
2021/05/01 10:33:18;;;;;;;0.70;0.70;;;;;;;20.26;29.46;100433.06;6198613;23;20005;-74
2021/05/01 10:36:24;;;;;;;0.85;0.85;;;;;;;20.53;31.79;100444.88;6194230;23;20012;-76
2021/05/01 10:39:57;;;;;;;;;;;;;;;;;;;;;
2021/05/01 10:42:27;;;;;;;0.95;0.82;;;;;;;25.36;31.55;100446.38;6046402;23;20015;-79
2021/05/01 10:45:07;;;;;;;;;;;;;;;;;;;;;
2021/05/01 10:47:36;;;;;;;3.67;0.50;;;;;;;28.45;26.99;100425.13;6178383;23;20065;-78
2021/05/01 10:50:37;;;;;;;1.23;0.70;;;;;;;28.92;23.88;100431.13;6197779;23;20057;-78
2021/05/01 10:53:19;;;;;;;0.40;0.32;;;;;;;28.38;22.91;100428.66;6031353;23;20023;-77
2021/05/01 10:56:17;;;;;;;;;;;;;;;;;;;;;
2021/05/01 10:58:53;;;;;;;0.40;0.40;;;;;;;26.60;23.53;100431.56;6166734;23;20021;-77
2021/05/01 11:01:35;;;;;;;0.52;0.52;;;;;;;25.70;23.05;100435.50;6139356;23;20451;-77
2021/05/01 11:04:06;;;;;;;1.20;1.10;;;;;;;24.64;23.09;100413.94;6134376;23;20455;-76
2021/05/01 11:07:11;;;;;;;0.93;0.93;;;;;;;23.81;23.20;100436.88;6165946;23;19997;-79
2021/05/01 11:09:44;;;;;;;1.58;1.48;;;;;;;22.82;23.74;100429.53;6128419;23;20487;-77
2021/05/01 11:12:12;;;;;;;1.00;1.00;;;;;;;21.97;24.72;100417.09;6140826;23;20045;-75
2021/05/01 11:14:50;;;;;;;1.20;1.20;;;;;;;21.33;25.85;100421.88;6167251;23;20006;-75
2021/05/01 11:17:21;;;;;;;1.17;1.17;;;;;;;20.87;26.15;100426.47;6139930;23;19997;-75
2021/05/01 11:19:47;;;;;;;1.63;1.52;;;;;;;20.40;26.66;100428.13;6166838;23;20051;-77
2021/05/01 11:22:16;;;;;;;1.20;1.10;;;;;;;19.95;27.40;100416.66;6164118;23;20001;-76
2021/05/01 11:24:43;;;;;;;0.90;0.90;;;;;;;19.75;27.92;100420.91;6144400;23;20008;-77
2021/05/01 11:27:09;;;;;;;1.27;1.27;;;;;;;19.66;28.50;100418.94;6139088;23;20013;-77
2021/05/01 11:29:35;;;;;;;0.60;0.60;;;;;;;19.56;28.56;100422.06;6165632;23;20009;-76
2021/05/01 11:32:04;;;;;;;1.40;1.30;;;;;;;19.44;27.39;100431.03;6140327;23;20009;-75
2021/05/01 11:34:31;;;;;;;1.00;1.00;;;;;;;19.32;27.88;100426.13;6138707;23;20005;-76
2021/05/01 11:37:02;;;;;;;0.40;0.40;;;;;;;19.38;28.07;100417.63;6161482;23;20008;-77
2021/05/01 11:39:29;;;;;;;0.60;0.60;;;;;;;19.61;28.45;100421.91;6141225;23;20089;-76
2021/05/01 11:42:21;;;;;;;0.63;0.60;;;;;;;19.94;28.79;100413.06;6164193;23;20020;-76
2021/05/01 11:44:48;;;;;;;1.85;0.68;;;;;;;20.40;28.06;100419.78;6143946;23;19997;-77
2021/05/01 11:47:16;;;;;;;0.50;0.50;;;;;;;21.03;27.99;100427.50;6173394;23;20028;-80
2021/05/01 11:49:42;;;;;;;0.65;0.45;;;;;;;22.32;29.07;100416.72;6149334;23;20005;-76
2021/05/01 11:52:13;;;;;;;0.70;0.70;;;;;;;24.39;28.45;100426.09;6156373;23;20467;-78